Time;durP1;ratioP1;P1;durP2;ratioP2;P2;SDS_P1;SDS_P2;PMS_P1;PMS_P2;Temp;Humidity;BMP_temperature;BMP_pressure;BME280_temperature;BME280_humidity;BME280_pressure;Samples;Min_cycle;Max_cycle;Signal;HPM_P1;HPM_P2
2022/05/21 00:01:32;;;;;;;;;3.00;3.00;;;;;18.02;54.10;102078.16;5065733;28;45705;-56
2022/05/21 00:03:57;;;;;;;;;4.00;2.67;;;;;18.02;54.33;102075.47;5057978;28;45478;-55
2022/05/21 00:06:23;;;;;;;;;4.33;4.00;;;;;18.01;54.35;102081.81;5055891;28;45484;-55
2022/05/21 00:08:48;;;;;;;;;6.00;4.33;;;;;18.01;54.15;102071.88;5061323;28;48686;-55
2022/05/21 00:11:13;;;;;;;;;6.00;6.00;;;;;17.99;54.45;102079.22;5059180;28;61399;-56
2022/05/21 00:13:39;;;;;;;;;5.33;3.33;;;;;17.98;54.57;102076.63;5066038;28;56706;-56
2022/05/21 00:16:05;;;;;;;;;3.67;3.67;;;;;17.97;54.19;102078.44;5071436;28;46783;-54
2022/05/21 00:18:31;;;;;;;;;4.00;3.00;;;;;17.95;54.55;102082.16;5067051;28;46946;-56
2022/05/21 00:20:56;;;;;;;;;5.33;5.00;;;;;17.93;54.35;102076.03;5067417;28;45906;-57
2022/05/21 00:23:25;;;;;;;;;9.00;6.00;;;;;17.90;54.78;102081.56;5066235;28;45276;-57
2022/05/21 00:25:56;;;;;;;;;5.00;5.00;;;;;17.86;54.79;102079.06;5046852;28;45542;-53
2022/05/21 00:28:22;;;;;;;;;5.33;5.00;;;;;17.84;54.79;102077.41;5066454;28;46154;-55
2022/05/21 00:30:47;;;;;;;;;4.00;4.00;;;;;17.83;54.63;102087.34;5059961;28;45371;-55
2022/05/21 00:33:14;;;;;;;;;10.33;6.00;;;;;17.82;54.91;102087.41;5060545;28;45351;-55
2022/05/21 00:35:39;;;;;;;;;4.33;4.33;;;;;17.78;55.00;102088.53;5059397;28;45469;-56
2022/05/21 00:38:05;;;;;;;;;5.33;5.33;;;;;17.74;55.03;102089.69;5060996;28;48791;-55
2022/05/21 00:40:30;;;;;;;;;5.33;4.00;;;;;17.67;55.21;102090.06;5059887;28;54253;-54
2022/05/21 00:42:56;;;;;;;;;3.00;3.00;;;;;17.64;55.43;102094.78;5062303;28;45407;-55
2022/05/21 00:45:21;;;;;;;;;4.00;4.00;;;;;17.63;55.29;102091.19;5064648;28;45530;-54
2022/05/21 00:47:46;;;;;;;;;5.00;3.00;;;;;17.64;55.07;102084.88;5064523;28;45279;-55
2022/05/21 00:50:15;;;;;;;;;3.00;3.00;;;;;17.60;55.05;102094.09;5056002;28;63383;-55
2022/05/21 00:52:41;;;;;;;;;3.00;3.00;;;;;17.58;55.52;102084.38;5058375;28;45466;-55
2022/05/21 00:55:16;;;;;;;;;6.33;6.33;;;;;17.57;55.25;102083.47;5058687;28;61638;-56
2022/05/21 00:59:47;;;;;;;;;6.00;3.67;;;;;17.52;55.38;102081.09;5051834;28;48154;-55
2022/05/21 01:00:36;;;;;;;;;8.00;4.33;;;;;17.50;55.62;102084.81;5058761;28;45467;-56
2022/05/21 01:03:01;;;;;;;;;7.00;4.33;;;;;17.45;55.45;102079.69;5059073;28;45452;-56
2022/05/21 01:05:27;;;;;;;;;5.33;4.33;;;;;17.44;55.76;102078.00;5058292;28;60106;-56
2022/05/21 01:07:55;;;;;;;;;5.67;5.00;;;;;17.44;55.61;102077.09;5069755;28;66600;-55
2022/05/21 01:10:22;;;;;;;;;6.67;6.67;;;;;17.43;56.09;102081.63;5058685;28;45389;-56
2022/05/21 01:12:50;;;;;;;;;4.00;4.00;;;;;17.40;55.98;102080.94;5060509;28;45235;-54
2022/05/21 01:15:23;;;;;;;;;6.00;4.67;;;;;17.40;56.28;102078.25;5059258;28;45375;-55
2022/05/21 01:17:49;;;;;;;;;8.00;5.67;;;;;17.40;55.86;102075.56;5045233;28;47225;-55
2022/05/21 01:20:20;;;;;;;;;5.67;3.00;;;;;17.42;55.79;102077.22;5054170;28;45267;-56
2022/05/21 01:22:48;;;;;;;;;4.33;4.33;;;;;17.42;55.91;102074.53;5054999;28;45602;-55
2022/05/21 01:25:17;;;;;;;;;8.33;5.00;;;;;17.41;55.95;102080.84;5056176;28;45515;-55
2022/05/21 01:27:43;;;;;;;;;7.00;5.33;;;;;17.41;56.08;102070.09;5062590;28;46199;-56
2022/05/21 01:30:11;;;;;;;;;5.00;5.00;;;;;17.43;55.72;102078.06;5050866;28;45649;-56
2022/05/21 01:32:37;;;;;;;;;3.33;3.00;;;;;17.44;55.90;102075.31;5045624;28;45534;-56
2022/05/21 01:35:03;;;;;;;;;6.00;4.67;;;;;17.45;55.79;102068.94;5068688;28;60918;-56
2022/05/21 01:37:30;;;;;;;;;6.33;4.33;;;;;17.44;55.71;102078.00;5045340;28;46204;-55
2022/05/21 01:39:55;;;;;;;;;5.67;3.00;;;;;17.45;55.99;102076.16;5044912;28;45573;-55
2022/05/21 01:42:21;;;;;;;;;5.33;3.33;;;;;17.43;56.01;102072.69;5044159;28;45364;-55
2022/05/21 01:44:52;;;;;;;;;4.00;4.00;;;;;17.45;55.96;102078.84;5043510;28;63286;-56
2022/05/21 01:47:18;;;;;;;;;4.33;4.33;;;;;17.45;56.04;102081.53;5041311;28;46864;-54
2022/05/21 01:49:43;;;;;;;;;4.33;3.67;;;;;17.45;56.18;102073.47;5059730;28;45605;-56
2022/05/21 01:52:10;;;;;;;;;4.00;4.00;;;;;17.44;56.17;102072.63;5063482;28;61742;-53
2022/05/21 01:54:36;;;;;;;;;5.67;3.00;;;;;17.44;56.04;102072.63;5045892;28;45448;-56
2022/05/21 01:57:02;;;;;;;;;3.00;3.00;;;;;17.43;55.83;102075.38;5055221;28;45497;-55
2022/05/21 01:59:28;;;;;;;;;6.00;4.00;;;;;17.43;56.12;102078.06;5059245;28;45370;-55
2022/05/21 02:01:54;;;;;;;;;3.00;3.00;;;;;17.42;55.64;102073.66;5059251;28;45346;-55
2022/05/21 02:04:20;;;;;;;;;4.00;3.00;;;;;17.41;55.98;102069.22;5061624;28;56685;-56
2022/05/21 02:06:46;;;;;;;;;5.67;4.00;;;;;17.40;55.80;102071.03;5056841;28;46376;-55
2022/05/21 02:09:11;;;;;;;;;4.00;3.00;;;;;17.39;55.83;102069.34;5060595;28;45295;-55
2022/05/21 02:11:38;;;;;;;;;3.00;3.00;;;;;17.37;55.62;102060.47;5059856;28;45233;-56
2022/05/21 02:14:04;;;;;;;;;5.00;3.33;;;;;17.37;56.25;102063.16;5066079;28;45624;-54
2022/05/21 02:16:30;;;;;;;;;3.00;3.00;;;;;17.35;55.76;102065.06;5064283;28;47195;-56
2022/05/21 02:18:55;;;;;;;;;4.00;4.00;;;;;17.34;55.92;102069.59;5064647;28;45577;-55
2022/05/21 02:21:20;;;;;;;;;3.33;3.33;;;;;17.34;55.75;102074.13;5060069;28;45400;-55
2022/05/21 02:23:46;;;;;;;;;4.00;3.33;;;;;17.34;56.00;102074.97;5059385;28;45419;-54
2022/05/21 02:26:11;;;;;;;;;3.67;2.67;;;;;17.32;55.80;102076.88;5058675;28;45398;-55
2022/05/21 02:28:37;;;;;;;;;5.00;5.00;;;;;17.31;55.73;102069.78;5062536;28;45390;-55
2022/05/21 02:31:03;;;;;;;;;3.67;2.00;;;;;17.29;56.08;102078.88;5068555;28;45633;-55
2022/05/21 02:33:28;;;;;;;;;4.67;3.00;;;;;17.27;56.33;102078.94;5060896;28;45416;-55
2022/05/21 02:35:54;;;;;;;;;4.67;3.00;;;;;17.26;56.02;102085.31;5065718;28;63654;-54
2022/05/21 02:41:09;;;;;;;;;4.67;3.00;;;;;17.27;56.08;102070.03;5056055;28;45248;-53
2022/05/21 02:43:35;;;;;;;;;5.33;4.00;;;;;17.26;56.23;102076.34;5059688;28;45397;-55
2022/05/21 02:46:00;;;;;;;;;3.67;3.67;;;;;17.22;55.88;102072.13;5056533;28;54016;-54
2022/05/21 02:48:28;;;;;;;;;3.00;3.00;;;;;17.22;55.96;102078.34;5060577;28;64231;-55
2022/05/21 02:50:54;;;;;;;;;7.00;4.33;;;;;17.23;56.05;102074.72;5064080;28;45451;-55
2022/05/21 02:53:19;;;;;;;;;8.00;4.33;;;;;17.25;55.97;102066.56;5067470;27;45401;-55
2022/05/21 02:55:46;;;;;;;;;3.67;2.67;;;;;17.20;56.42;102070.38;5057241;28;50451;-55
2022/05/21 02:58:12;;;;;;;;;4.33;4.33;;;;;17.17;56.31;102073.25;5057907;28;45173;-55
2022/05/21 03:00:37;;;;;;;;;5.33;3.33;;;;;17.16;55.96;102076.91;5062605;28;45223;-55
2022/05/21 03:03:03;;;;;;;;;3.67;3.67;;;;;17.16;56.48;102078.72;5066181;28;45446;-54
2022/05/21 03:05:29;;;;;;;;;6.67;4.67;;;;;17.16;56.41;102081.41;5056615;28;62221;-55
2022/05/21 03:07:55;;;;;;;;;3.00;3.00;;;;;17.16;56.23;102079.59;5058899;28;45181;-55
2022/05/21 03:10:23;;;;;;;;;5.00;5.00;;;;;17.14;56.58;102078.81;5067477;28;45228;-55
2022/05/21 03:13:00;;;;;;;;;6.00;3.00;;;;;17.15;56.28;102083.22;5056868;28;45482;-55
2022/05/21 03:15:35;;;;;;;;;5.00;5.00;;;;;17.15;56.44;102080.53;5055557;28;46167;-54
2022/05/21 03:18:02;;;;;;;;;5.33;4.00;;;;;17.10;56.36;102079.06;5064937;28;45332;-54
2022/05/21 03:20:27;;;;;;;;;4.67;3.00;;;;;17.09;56.43;102071.97;5059673;28;45368;-55
2022/05/21 03:22:53;;;;;;;;;5.33;4.33;;;;;17.07;56.32;102071.19;5058129;28;45258;-55
2022/05/21 03:25:19;;;;;;;;;7.67;4.67;;;;;17.06;56.75;102072.16;5060854;28;45697;-54
2022/05/21 03:27:45;;;;;;;;;8.33;4.33;;;;;17.08;56.66;102079.16;5056045;28;45356;-54
2022/05/21 03:30:14;;;;;;;;;6.33;4.67;;;;;17.09;56.74;102080.91;5057764;28;45363;-54
2022/05/21 03:32:40;;;;;;;;;6.33;5.00;;;;;17.11;56.43;102081.66;5063309;28;45491;-54
2022/05/21 03:35:06;;;;;;;;;3.00;2.67;;;;;17.11;56.63;102094.25;5061820;28;46389;-54
2022/05/21 03:37:32;;;;;;;;;6.00;3.00;;;;;17.10;56.38;102084.44;5061765;28;45315;-54
2022/05/21 03:39:57;;;;;;;;;3.33;3.00;;;;;17.09;56.05;102083.59;5061280;28;45423;-54
2022/05/21 03:42:22;;;;;;;;;4.00;4.00;;;;;17.10;55.67;102077.25;5058715;28;45726;-55
2022/05/21 03:44:48;;;;;;;;;4.00;4.00;;;;;17.11;55.68;102076.28;5060868;28;64372;-53
2022/05/21 03:47:14;;;;;;;;;3.00;3.00;;;;;17.13;55.56;102081.56;5057039;28;65954;-54
2022/05/21 03:49:39;;;;;;;;;5.00;3.33;;;;;17.13;55.57;102079.78;5058056;28;45334;-55
2022/05/21 03:52:06;;;;;;;;;2.33;2.33;;;;;17.14;55.65;102078.81;5064210;28;45669;-53
2022/05/21 03:54:32;;;;;;;;;3.00;3.00;;;;;17.16;55.83;102084.97;5058142;28;45292;-53
2022/05/21 03:56:57;;;;;;;;;3.00;3.00;;;;;17.15;55.56;102091.28;5055868;28;45373;-55
2022/05/21 03:59:22;;;;;;;;;4.00;4.00;;;;;17.16;55.80;102089.47;5060417;28;62390;-54
2022/05/21 04:01:48;;;;;;;;;2.67;2.67;;;;;17.16;55.36;102087.66;5058800;28;59515;-55
2022/05/21 04:04:13;;;;;;;;;3.33;2.00;;;;;17.17;55.20;102099.28;5059520;28;68158;-55
2022/05/21 04:06:39;;;;;;;;;4.00;3.00;;;;;17.16;55.37;102095.72;5059243;28;45473;-55
2022/05/21 04:09:04;;;;;;;;;5.67;4.67;;;;;17.16;54.80;102089.47;5060425;28;45304;-54
2022/05/21 04:11:29;;;;;;;;;3.67;3.67;;;;;17.16;54.79;102087.66;5059950;28;45511;-55
2022/05/21 04:13:55;;;;;;;;;7.67;6.33;;;;;17.16;54.74;102084.97;5053661;28;64762;-55
2022/05/21 04:16:20;;;;;;;;;5.33;5.33;;;;;17.16;55.20;102084.09;5054170;28;61548;-55
2022/05/21 04:18:45;;;;;;;;;4.00;4.00;;;;;17.17;54.96;102085.84;5055003;28;57503;-55
2022/05/21 04:21:11;;;;;;;;;3.33;3.33;;;;;17.16;55.37;102086.78;5065251;28;45300;-55
2022/05/21 04:23:36;;;;;;;;;5.00;4.00;;;;;17.18;55.26;102092.94;5059706;28;45442;-56
2022/05/21 04:26:02;;;;;;;;;5.00;5.00;;;;;17.16;55.36;102089.47;5059623;28;61296;-55
2022/05/21 04:28:27;;;;;;;;;7.00;5.00;;;;;17.14;55.01;102096.75;5061163;28;52964;-55
2022/05/21 04:30:52;;;;;;;;;6.33;3.67;;;;;17.13;55.06;102101.28;5054236;28;62230;-54
2022/05/21 04:33:17;;;;;;;;;2.00;2.00;;;;;17.12;55.08;102099.53;5069502;28;66602;-55
2022/05/21 04:38:26;;;;;;;;;2.00;2.00;;;;;17.10;55.26;102092.53;5060435;28;45424;-55
2022/05/21 04:40:52;;;;;;;;;2.00;2.00;;;;;17.10;54.79;102084.44;5060242;28;45201;-54
2022/05/21 04:43:17;;;;;;;;;3.00;3.00;;;;;17.07;55.32;102088.19;5058847;28;69837;-55
2022/05/21 04:45:42;;;;;;;;;3.00;3.00;;;;;17.02;54.80;102088.44;5058785;28;66727;-55
2022/05/21 04:48:09;;;;;;;;;3.33;3.33;;;;;17.00;55.59;102089.47;5054401;28;45363;-54
2022/05/21 04:50:35;;;;;;;;;3.33;3.33;;;;;17.00;55.47;102087.66;5058455;28;45563;-54
2022/05/21 04:53:01;;;;;;;;;1.67;1.00;;;;;17.01;55.77;102088.53;5054866;28;47190;-54
2022/05/21 04:55:26;;;;;;;;;4.00;4.00;;;;;17.00;56.07;102078.72;5064743;28;67666;-54
2022/05/21 04:57:51;;;;;;;;;4.67;3.00;;;;;16.99;55.87;102080.56;5067057;28;45295;-53
2022/05/21 05:00:17;;;;;;;;;4.00;4.00;;;;;16.98;56.04;102081.50;5068000;28;45516;-54
2022/05/21 05:02:42;;;;;;;;;4.67;2.67;;;;;16.97;55.67;102086.97;5063725;28;46665;-54
2022/05/21 05:05:08;;;;;;;;;1.00;1.00;;;;;16.97;55.81;102095.03;5059536;28;61438;-54
2022/05/21 05:07:34;;;;;;;;;4.00;4.00;;;;;16.96;55.87;102080.75;5060809;28;61780;-54
2022/05/21 05:09:59;;;;;;;;;4.00;4.00;;;;;16.96;55.86;102083.44;5070578;28;45621;-54
2022/05/21 05:12:25;;;;;;;;;2.67;2.67;;;;;16.97;56.52;102087.84;5055290;28;45371;-54
2022/05/21 05:14:50;;;;;;;;;8.33;5.67;;;;;16.97;56.34;102085.16;5059155;28;45462;-52
2022/05/21 05:17:16;;;;;;;;;3.00;3.00;;;;;16.97;56.96;102093.22;5063023;28;45278;-54
2022/05/21 05:19:42;;;;;;;;;7.00;5.00;;;;;16.96;56.75;102099.56;5064365;28;45472;-54
2022/05/21 05:22:10;;;;;;;;;9.00;5.00;;;;;16.94;56.59;102095.22;5059866;28;46312;-54
2022/05/21 05:24:36;;;;;;;;;5.00;5.00;;;;;16.93;56.78;102094.34;5061999;28;45424;-56
2022/05/21 05:27:02;;;;;;;;;5.00;5.00;;;;;16.90;56.90;102096.31;5061537;28;45421;-54
2022/05/21 05:29:28;;;;;;;;;6.00;5.00;;;;;16.89;57.23;102089.22;5059721;28;45659;-54
2022/05/21 05:31:54;;;;;;;;;7.00;7.00;;;;;16.89;57.11;102082.00;5053012;28;46862;-52
2022/05/21 05:34:19;;;;;;;;;5.00;5.00;;;;;16.89;56.89;102076.63;5057768;28;45467;-54
2022/05/21 05:36:47;;;;;;;;;8.33;6.00;;;;;16.91;57.19;102082.81;5058828;28;60704;-54
2022/05/21 05:39:13;;;;;;;;;7.00;3.67;;;;;16.89;57.19;102082.00;5061087;28;45467;-55
2022/05/21 05:41:39;;;;;;;;;4.67;4.67;;;;;16.87;57.25;102079.41;5058071;28;45427;-55
2022/05/21 05:44:05;;;;;;;;;9.00;5.67;;;;;16.87;56.88;102084.78;5061239;28;45332;-55
2022/05/21 05:46:30;;;;;;;;;6.00;5.00;;;;;16.88;57.38;102074.88;5054728;28;45280;-54
2022/05/21 05:48:56;;;;;;;;;6.67;5.00;;;;;16.88;57.23;102080.25;5064288;28;57202;-53
2022/05/21 05:51:21;;;;;;;;;4.33;4.33;;;;;16.90;57.18;102077.50;5060137;28;46382;-54
2022/05/21 05:53:47;;;;;;;;;9.33;5.67;;;;;16.93;56.46;102088.09;5070050;28;45394;-54
2022/05/21 05:56:14;;;;;;;;;5.00;5.00;;;;;16.95;56.49;102080.84;5059838;28;45351;-55
2022/05/21 06:01:25;;;;;;;;;3.33;3.33;;;;;17.02;56.44;102090.25;5054172;28;45465;-55
2022/05/21 06:03:50;;;;;;;;;4.00;4.00;;;;;17.05;56.53;102091.91;5054380;28;45380;-54
2022/05/21 06:06:16;;;;;;;;;5.00;5.00;;;;;17.08;56.51;102089.91;5059290;28;60868;-54
2022/05/21 06:08:43;;;;;;;;;6.00;5.00;;;;;17.07;55.76;102087.34;5059456;28;45406;-52
2022/05/21 06:11:09;;;;;;;;;6.00;5.00;;;;;17.04;56.25;102080.31;5058629;28;46327;-55
2022/05/21 06:13:34;;;;;;;;;9.67;6.00;;;;;17.09;55.91;102085.41;5060273;28;45459;-54
2022/05/21 06:16:00;;;;;;;;;5.00;4.67;;;;;17.13;55.73;102095.03;5051579;28;45883;-53
2022/05/21 06:18:26;;;;;;;;;4.00;3.00;;;;;17.18;55.77;102084.88;5064666;28;45421;-54
2022/05/21 06:20:51;;;;;;;;;3.33;3.00;;;;;17.24;55.58;102091.72;5058204;28;45500;-55
2022/05/21 06:23:18;;;;;;;;;4.00;2.33;;;;;17.31;55.18;102093.97;5057921;28;45394;-55
2022/05/21 06:25:43;;;;;;;;;3.00;3.00;;;;;17.36;55.07;102091.00;5058027;28;45503;-55
2022/05/21 06:28:09;;;;;;;;;3.67;3.67;;;;;17.41;54.75;102096.13;5060375;28;63328;-53
2022/05/21 06:30:37;;;;;;;;;5.67;3.67;;;;;17.45;54.41;102095.00;5059146;28;45972;-55
2022/05/21 06:33:18;;;;;;;;;7.00;4.67;;;;;17.48;54.60;102092.09;5059463;28;45478;-52
2022/05/21 06:35:48;;;;;;;;;3.33;2.00;;;;;17.53;54.45;102092.69;5058257;28;45401;-54
2022/05/21 06:38:15;;;;;;;;;4.33;4.33;;;;;17.57;54.48;102094.25;5057769;28;45277;-54
2022/05/21 06:40:40;;;;;;;;;7.00;4.33;;;;;17.63;54.16;102098.41;5058222;28;46055;-54
2022/05/21 06:43:05;;;;;;;;;4.67;4.00;;;;;17.71;54.26;102095.28;5064632;28;64499;-54
2022/05/21 06:45:32;;;;;;;;;8.00;5.33;;;;;17.76;54.49;102091.34;5059950;28;45332;-55
2022/05/21 06:48:07;;;;;;;;;5.00;5.00;;;;;17.85;54.21;102096.16;5069473;28;45423;-55
2022/05/21 06:50:34;;;;;;;;;3.00;3.00;;;;;17.92;54.08;102093.97;5065922;28;45458;-54
2022/05/21 06:52:59;;;;;;;;;1.00;1.00;;;;;17.98;53.77;102098.16;5072038;28;45512;-56
2022/05/21 06:55:25;;;;;;;;;3.67;3.00;;;;;18.02;53.36;102097.00;5058129;28;52038;-55
2022/05/21 06:57:51;;;;;;;;;4.67;3.67;;;;;18.09;53.41;102092.09;5058084;28;45430;-54
2022/05/21 07:00:18;;;;;;;;;5.00;3.00;;;;;18.16;53.06;102096.13;5057629;28;45387;-54
2022/05/21 07:02:44;;;;;;;;;3.00;3.00;;;;;18.22;52.97;102084.13;5059842;28;45332;-54
2022/05/21 07:07:54;;;;;;;;;7.67;4.00;;;;;18.38;52.73;102100.19;5057331;28;45217;-55
2022/05/21 07:10:24;;;;;;;;;2.67;2.67;;;;;18.46;52.63;102089.78;5069705;28;69222;-54
2022/05/21 07:12:50;;;;;;;;;3.00;3.00;;;;;18.53;52.50;102099.22;5059727;28;45560;-54
2022/05/21 07:15:16;;;;;;;;;3.00;3.00;;;;;18.63;52.30;102095.00;5039771;28;45391;-53
2022/05/21 07:17:42;;;;;;;;;4.33;3.67;;;;;18.76;51.49;102104.97;5061514;28;45185;-57
2022/05/21 07:20:12;;;;;;;;;4.00;3.00;;;;;18.80;50.60;102102.00;5061836;28;45290;-55
2022/05/21 07:22:45;;;;;;;;;2.67;2.00;;;;;18.84;50.51;102095.44;5053071;28;45483;-55
2022/05/21 07:25:18;;;;;;;;;2.00;2.00;;;;;18.93;50.57;102102.09;5061112;28;45310;-54
2022/05/21 07:27:43;;;;;;;;;3.33;3.33;;;;;19.06;50.00;102106.69;5044206;28;45371;-55
2022/05/21 07:30:09;;;;;;;;;3.33;2.00;;;;;19.15;49.82;102106.06;5062803;28;46122;-54
2022/05/21 07:32:35;;;;;;;;;1.33;1.33;;;;;19.25;49.75;102106.34;5069662;28;45429;-54
2022/05/21 07:35:04;;;;;;;;;4.67;1.33;;;;;19.34;49.14;102111.13;5067982;28;45487;-55
2022/05/21 07:37:29;;;;;;;;;1.67;1.67;;;;;19.44;48.85;102108.69;5043668;28;45389;-55
2022/05/21 07:39:55;;;;;;;;;2.00;2.00;;;;;19.54;48.73;102101.66;5061496;28;65333;-54
2022/05/21 07:42:20;;;;;;;;;3.33;1.67;;;;;19.65;48.45;102100.97;5046324;28;45355;-55
2022/05/21 07:44:46;;;;;;;;;1.33;1.33;;;;;19.79;48.14;102102.69;5066109;28;45351;-55
2022/05/21 07:47:11;;;;;;;;;2.00;2.00;;;;;19.88;48.24;102104.81;5061861;28;60352;-56
2022/05/21 07:49:37;;;;;;;;;0.33;0.33;;;;;19.95;48.50;102095.31;5063608;28;45411;-56
2022/05/21 07:52:04;;;;;;;;;3.00;1.67;;;;;20.04;47.71;102096.50;5063764;28;45292;-57
2022/05/21 07:54:29;;;;;;;;;1.00;1.00;;;;;20.13;47.52;102097.72;5062767;28;45451;-58
2022/05/21 07:56:55;;;;;;;;;1.00;1.00;;;;;20.22;47.51;102091.66;5072083;28;49004;-54
2022/05/21 07:59:21;;;;;;;;;0.00;0.00;;;;;20.30;46.81;102091.13;5068748;28;54071;-55
2022/05/21 08:01:47;;;;;;;;;1.33;1.00;;;;;20.35;46.60;102097.06;5062153;28;64614;-56
2022/05/21 08:04:12;;;;;;;;;0.67;0.67;;;;;20.39;46.69;102087.75;5048312;28;45327;-57
2022/05/21 08:06:38;;;;;;;;;3.67;1.67;;;;;20.46;46.30;102093.56;5058885;28;45535;-57
2022/05/21 08:09:03;;;;;;;;;1.33;1.33;;;;;20.56;46.42;102094.66;5065543;28;45902;-56
2022/05/21 08:11:29;;;;;;;;;2.25;0.25;;;;;20.69;46.32;102089.22;5062509;28;45210;-56
2022/05/21 08:13:54;;;;;;;;;2.67;1.00;;;;;20.84;45.42;102091.81;5064696;28;59013;-57
2022/05/21 08:16:20;;;;;;;;;1.00;1.00;;;;;21.00;45.35;102089.69;5064371;28;50336;-57
2022/05/21 08:18:45;;;;;;;;;1.67;1.67;;;;;21.16;45.39;102092.13;5062648;28;45861;-56
2022/05/21 08:21:11;;;;;;;;;3.00;1.33;;;;;21.28;44.94;102084.94;5069670;28;45482;-56
2022/05/21 08:29:04;;;;;;;;;0.25;0.25;;;;;21.56;44.30;102078.31;5060390;28;45433;-57
2022/05/21 08:31:30;;;;;;;;;2.00;2.00;;;;;21.63;43.64;102078.69;5059070;28;65285;-57
2022/05/21 08:33:55;;;;;;;;;1.00;1.00;;;;;21.72;43.53;102082.50;5063822;28;56885;-56
2022/05/21 08:36:21;;;;;;;;;1.50;1.00;;;;;21.87;43.68;102085.91;5066609;28;45477;-56
2022/05/21 08:38:46;;;;;;;;;1.67;1.67;;;;;21.99;43.64;102074.09;5061704;28;46116;-57
2022/05/21 08:41:20;;;;;;;;;3.25;3.00;;;;;22.14;43.16;102082.88;5066844;28;45410;-57
2022/05/21 08:44:03;;;;;;;;;1.67;1.67;;;;;22.34;42.81;102075.84;5042876;28;45398;-57
2022/05/21 08:46:53;;;;;;;;;0.00;0.00;;;;;22.57;42.25;102082.16;5060348;28;45486;-56
2022/05/21 08:49:33;;;;;;;;;0.00;0.00;;;;;22.79;41.79;102067.69;5060136;28;46167;-57
2022/05/21 08:52:25;;;;;;;;;0.25;0.25;;;;;23.05;41.67;102070.09;5057154;28;45346;-56
2022/05/21 08:54:52;;;;;;;;;0.25;0.25;;;;;23.25;40.92;102075.75;5050594;28;45494;-56
2022/05/21 08:57:23;;;;;;;;;1.00;1.00;;;;;23.40;40.95;102079.88;5065767;28;45520;-55
2022/05/21 08:59:56;;;;;;;;;0.00;0.00;;;;;23.54;40.74;102080.56;5041020;28;45422;-56
2022/05/21 09:02:28;;;;;;;;;1.50;0.00;;;;;23.73;39.75;102072.53;5035307;28;45616;-68
2022/05/21 09:04:53;;;;;;;;;2.25;0.75;;;;;23.91;39.21;102067.41;5044216;28;45371;-63
2022/05/21 09:07:22;;;;;;;;;0.00;0.00;;;;;24.17;39.23;102064.25;5052974;28;57030;-62
2022/05/21 09:09:47;;;;;;;;;1.75;0.00;;;;;24.40;39.05;102064.06;5036890;28;45346;-64
2022/05/21 09:12:21;;;;;;;;;0.25;0.25;;;;;24.56;39.22;102061.69;5050686;28;45189;-64
2022/05/21 09:14:53;;;;;;;;;0.50;0.00;;;;;24.72;38.57;102055.75;5034073;28;45540;-64
2022/05/21 09:17:23;;;;;;;;;2.50;2.00;;;;;24.85;37.70;102052.78;5056986;28;45528;-64
2022/05/21 09:19:55;;;;;;;;;2.00;0.00;;;;;24.86;38.39;102043.63;5071760;28;46253;-64
2022/05/21 09:22:21;;;;;;;;;2.25;1.75;;;;;24.95;37.74;102044.59;5064432;28;45657;-64
2022/05/21 09:24:51;;;;;;;;;2.25;0.50;;;;;25.09;37.95;102043.34;5062085;28;45513;-64
2022/05/21 09:27:43;;;;;;;;;0.75;0.25;;;;;25.23;36.85;102040.19;5062941;28;45396;-64
2022/05/21 09:30:23;;;;;;;;;1.00;0.00;;;;;25.35;37.16;102040.09;5062613;28;46184;-64
2022/05/21 09:32:52;;;;;;;;;3.00;3.00;;;;;25.49;37.24;102030.59;5059579;28;45447;-64
2022/05/21 09:35:24;;;;;;;;;0.00;0.00;;;;;25.58;37.54;102027.88;5060621;28;45331;-64
2022/05/21 09:37:50;;;;;;;;;0.00;0.00;;;;;25.65;37.45;102030.84;5059521;28;45467;-64
2022/05/21 09:40:29;;;;;;;;;0.00;0.00;;;;;25.72;37.16;102029.28;5051643;28;46551;-65
2022/05/21 09:45:40;;;;;;;;;4.75;0.00;;;;;25.92;35.90;102024.63;5034765;28;46446;-64
2022/05/21 09:48:05;;;;;;;;;4.75;3.00;;;;;25.86;36.22;102030.66;5046389;28;45621;-64
2022/05/21 09:50:54;;;;;;;;;2.25;2.00;;;;;25.89;36.33;102024.94;5043999;28;45473;-63
2022/05/21 09:53:36;;;;;;;;;3.00;2.00;;;;;25.94;36.52;102027.19;5050043;28;45326;-63
2022/05/21 09:56:20;;;;;;;;;3.50;0.00;;;;;25.98;35.53;102023.16;5058489;28;45364;-63
2022/05/21 09:58:47;;;;;;;;;1.50;1.50;;;;;25.94;34.68;102019.00;5059237;28;45615;-59
2022/05/21 10:01:36;;;;;;;;;2.00;2.00;;;;;25.98;35.44;102009.53;5062054;28;46753;-59
2022/05/21 10:04:43;;;;;;;;;0.00;0.00;;;;;26.12;36.19;102008.22;5060418;28;45452;-59
2022/05/21 10:13:14;;;;;;;;;0.50;0.50;;;;;26.65;35.16;102011.22;5059590;28;45856;-58
2022/05/21 10:15:44;;;;;;;;;3.00;3.00;;;;;26.76;35.19;102013.78;5040081;28;45819;-58
2022/05/21 10:18:21;;;;;;;;;2.50;2.50;;;;;26.80;32.96;102009.72;5057425;28;45407;-65
2022/05/21 10:20:51;;;;;;;;;2.25;2.25;;;;;26.66;35.05;102000.19;5059596;28;45571;-64
2022/05/21 10:23:26;;;;;;;;;4.00;2.00;;;;;26.68;34.72;102003.59;5045582;28;46169;-65
2022/05/21 10:26:30;;;;;;;;;4.00;3.00;;;;;26.80;34.45;102007.00;5053511;28;45357;-64
2022/05/21 10:29:07;;;;;;;;;1.00;1.00;;;;;27.02;35.22;102013.00;5038279;28;45877;-67
2022/05/21 10:32:05;;;;;;;;;2.00;2.00;;;;;27.13;34.49;102009.19;5061310;28;45411;-65
2022/05/21 10:34:49;;;;;;;;;0.25;0.25;;;;;27.19;33.58;102009.41;5027065;28;45440;-57
2022/05/21 10:37:52;;;;;;;;;4.50;2.50;;;;;27.13;34.29;102014.63;5056659;28;45456;-57
2022/05/21 10:40:25;;;;;;;;;0.00;0.00;;;;;26.98;34.15;102003.44;4980886;28;45468;-57
2022/05/21 10:42:59;;;;;;;;;0.00;0.00;;;;;26.87;34.44;102002.66;5047730;28;45802;-57
2022/05/21 10:45:24;;;;;;;;;2.00;2.00;;;;;26.86;33.54;102002.81;5058969;28;46419;-58
2022/05/21 10:48:03;;;;;;;;;3.00;2.00;;;;;26.91;33.76;101998.59;5056446;28;45505;-57
2022/05/21 10:50:31;;;;;;;;;2.75;1.25;;;;;27.05;34.54;102007.22;5062819;28;45801;-57
2022/05/21 10:53:12;;;;;;;;;1.00;1.00;;;;;27.13;34.97;101996.41;5058327;28;45559;-57
2022/05/21 10:55:50;;;;;;;;;0.00;0.00;;;;;27.14;33.49;102003.56;5061476;28;46334;-59
2022/05/21 10:59:02;;;;;;;;;6.25;0.75;;;;;27.11;34.65;102008.50;5045468;28;45329;-59
2022/05/21 11:01:29;;;;;;;;;1.00;1.00;;;;;27.20;34.40;101991.16;5037766;28;45434;-58
2022/05/21 11:04:29;;;;;;;;;1.00;1.00;;;;;27.35;33.84;101978.66;5051568;28;45367;-58
2022/05/21 11:07:35;;;;;;;;;2.00;1.50;;;;;27.51;34.14;101979.84;5059506;28;46464;-58
2022/05/21 11:10:03;;;;;;;;;2.00;1.00;;;;;27.54;33.52;101977.59;5013083;28;45455;-62
2022/05/21 11:12:49;;;;;;;;;2.00;0.00;;;;;27.64;33.17;101976.63;5050644;28;45291;-60
2022/05/21 11:15:41;;;;;;;;;1.50;1.00;;;;;27.71;32.99;101964.91;5059670;28;45563;-60
2022/05/21 11:18:41;;;;;;;;;5.00;2.50;;;;;27.78;31.93;101967.00;5051104;28;46346;-62
2022/05/21 11:21:20;;;;;;;;;2.00;1.00;;;;;27.72;33.57;101963.91;5069225;28;45765;-61
2022/05/21 11:23:54;;;;;;;;;2.25;1.25;;;;;27.84;33.06;101955.41;5057200;28;45548;-61
2022/05/21 11:26:44;;;;;;;;;3.50;3.50;;;;;27.98;33.10;101951.22;5051023;28;45547;-61
2022/05/21 11:29:38;;;;;;;;;3.00;1.50;;;;;28.20;32.66;101958.84;5067911;28;46150;-62
2022/05/21 11:37:43;;;;;;;;;1.00;1.00;;;;;27.89;31.77;101948.44;5043311;28;45500;-63
2022/05/21 11:40:39;;;;;;;;;1.50;0.50;;;;;27.73;32.52;101946.50;5047456;28;46212;-63
2022/05/21 11:43:04;;;;;;;;;1.00;1.00;;;;;27.78;32.43;101940.50;5070215;28;45651;-61
2022/05/21 11:45:29;;;;;;;;;1.00;1.00;;;;;27.92;32.78;101944.50;5044039;28;45318;-61
2022/05/21 11:48:12;;;;;;;;;2.00;0.50;;;;;28.10;32.97;101939.00;5063215;27;62946;-61
2022/05/21 11:50:40;;;;;;;;;2.50;2.50;;;;;28.28;32.28;101938.00;5055065;28;45356;-62
2022/05/21 11:53:30;;;;;;;;;2.00;1.00;;;;;28.42;32.52;101931.91;5057411;28;45351;-62
2022/05/21 11:55:58;;;;;;;;;2.25;2.25;;;;;28.58;32.12;101925.59;5067666;28;45491;-62
2022/05/21 11:58:58;;;;;;;;;1.00;1.00;;;;;28.71;32.07;101926.00;5065258;28;45617;-62
2022/05/21 12:01:41;;;;;;;;;1.00;1.00;;;;;28.84;31.95;101916.44;5050897;28;45609;-62
2022/05/21 12:04:37;;;;;;;;;7.00;2.25;;;;;28.97;31.90;101918.63;5060133;28;45439;-59
2022/05/21 12:07:05;;;;;;;;;2.00;1.50;;;;;29.04;31.73;101915.03;5035910;28;45439;-59